Time;durP1;ratioP1;P1;durP2;ratioP2;P2;SDS_P1;SDS_P2;PMS_P1;PMS_P2;Temp;Humidity;BMP_temperature;BMP_pressure;BME280_temperature;BME280_humidity;BME280_pressure;Samples;Min_cycle;Max_cycle;Signal;HPM_P1;HPM_P2
2022/01/03 00:01:15;;;;;;;57.40;7.75;;;;;;;-145.67;100.00;66521.78;5010477;28;20124;-71
2022/01/03 00:03:40;;;;;;;57.15;7.47;;;;;;;-145.67;100.00;66521.78;4994444;28;20038;-70
2022/01/03 00:06:06;;;;;;;54.35;7.65;;;;;;;-145.67;100.00;66521.78;4999841;28;20726;-72
2022/01/03 00:08:32;;;;;;;57.20;7.03;;;;;;;-145.67;100.00;66521.78;5000980;28;20037;-72
2022/01/03 00:10:58;;;;;;;57.13;7.53;;;;;;;-145.67;100.00;66521.78;5005011;28;20176;-71
2022/01/03 00:13:26;;;;;;;50.20;7.43;;;;;;;-145.67;100.00;66521.78;4995192;28;20049;-71
2022/01/03 00:15:52;;;;;;;58.17;7.20;;;;;;;-145.67;100.00;66521.78;4995735;28;20038;-73
2022/01/03 00:18:21;;;;;;;59.47;8.70;;;;;;;-145.67;100.00;66521.78;4993383;28;20032;-70
2022/01/03 00:20:57;;;;;;;65.18;7.07;;;;;;;-145.67;100.00;66521.78;5009787;28;20045;-72
2022/01/03 00:23:26;;;;;;;48.60;6.95;;;;;;;-145.67;100.00;66521.78;5010213;28;20135;-72
2022/01/03 00:26:00;;;;;;;57.50;8.88;;;;;;;-145.67;100.00;66521.78;4984078;28;20048;-71
2022/01/03 00:28:58;;;;;;;58.47;7.60;;;;;;;-145.67;100.00;66521.78;5008951;28;20064;-71
2022/01/03 00:31:33;;;;;;;57.20;7.75;;;;;;;-145.67;100.00;66521.78;4984985;28;20877;-71
2022/01/03 00:33:59;;;;;;;60.20;7.63;;;;;;;-145.67;100.00;66521.78;5000207;28;20556;-71
2022/01/03 00:36:27;;;;;;;59.22;7.35;;;;;;;-145.67;100.00;66521.78;5009647;28;20041;-71
2022/01/03 00:38:54;;;;;;;57.42;7.25;;;;;;;-145.67;100.00;66521.78;4998485;28;20077;-71
2022/01/03 00:41:21;;;;;;;54.47;7.45;;;;;;;-145.67;100.00;66521.78;5009754;28;20473;-70
2022/01/03 00:43:47;;;;;;;45.45;7.15;;;;;;;-145.67;100.00;66521.78;5009225;28;20042;-71
2022/01/03 00:46:17;;;;;;;50.72;6.40;;;;;;;-145.67;100.00;66521.78;4995186;28;20388;-70
2022/01/03 00:48:43;;;;;;;51.70;7.53;;;;;;;-145.67;100.00;66521.78;5000039;28;20089;-70
2022/01/03 00:51:09;;;;;;;54.00;7.30;;;;;;;-145.67;100.00;66521.78;4994284;28;20091;-71
2022/01/03 00:53:34;;;;;;;54.08;6.93;;;;;;;-145.67;100.00;66521.78;5009111;28;20029;-70
2022/01/03 00:56:05;;;;;;;54.92;7.90;;;;;;;-145.67;100.00;66521.78;4993938;28;20581;-73
2022/01/03 00:59:05;;;;;;;55.97;8.27;;;;;;;-145.67;100.00;66521.78;4984352;28;20030;-72
2022/01/03 01:01:31;;;;;;;58.92;8.98;;;;;;;-145.67;100.00;66521.78;4994206;28;20026;-71
2022/01/03 01:03:57;;;;;;;56.90;8.40;;;;;;;-145.67;100.00;66521.78;5008992;28;20044;-72
2022/01/03 01:06:24;;;;;;;48.45;7.70;;;;;;;-145.67;100.00;66521.78;5008846;28;20888;-72
2022/01/03 01:08:55;;;;;;;51.05;7.38;;;;;;;-145.67;100.00;66521.78;4994188;28;20071;-72
2022/01/03 01:11:28;;;;;;;52.05;7.30;;;;;;;-145.67;100.00;66521.78;5004671;28;20029;-71
2022/01/03 01:13:54;;;;;;;50.78;7.57;;;;;;;-145.67;100.00;66521.78;5000677;28;20068;-71
2022/01/03 01:16:19;;;;;;;41.45;7.10;;;;;;;-145.67;100.00;66521.78;4997793;28;20049;-71
2022/01/03 01:18:45;;;;;;;56.60;7.88;;;;;;;-145.67;100.00;66521.78;4994497;28;20041;-71
2022/01/03 01:21:11;;;;;;;50.00;7.85;;;;;;;-145.67;100.00;66521.78;4992816;28;20065;-71
2022/01/03 01:23:40;;;;;;;47.58;6.78;;;;;;;-145.67;100.00;66521.78;4993866;28;20042;-71
2022/01/03 01:28:49;;;;;;;50.22;7.38;;;;;;;-145.67;100.00;66521.78;4994441;28;20103;-71
2022/01/03 01:31:19;;;;;;;65.55;9.32;;;;;;;-145.67;100.00;66521.78;4993919;28;20117;-71
2022/01/03 01:33:47;;;;;;;45.53;6.97;;;;;;;-145.67;100.00;66521.78;4993777;28;20481;-71
2022/01/03 01:36:17;;;;;;;59.53;8.50;;;;;;;-145.67;100.00;66521.78;4997654;28;20091;-71
2022/01/03 01:38:46;;;;;;;50.42;7.05;;;;;;;-145.67;100.00;66521.78;4993596;28;20046;-71
2022/01/03 01:41:12;;;;;;;51.95;7.82;;;;;;;-145.67;100.00;66521.78;5009193;28;20045;-71
2022/01/03 01:43:44;;;;;;;50.33;7.70;;;;;;;-145.67;100.00;66521.78;4993967;28;20049;-71
2022/01/03 01:46:12;;;;;;;58.63;8.60;;;;;;;-145.67;100.00;66521.78;5008615;28;20040;-71
2022/01/03 01:48:40;;;;;;;41.83;7.10;;;;;;;-145.67;100.00;66521.78;5008097;28;20044;-71
2022/01/03 01:51:07;;;;;;;46.80;7.63;;;;;;;-145.67;100.00;66521.78;4994319;28;20169;-71
2022/01/03 01:53:42;;;;;;;48.50;6.93;;;;;;;-145.67;100.00;66521.78;5003365;28;20596;-71
2022/01/03 01:56:22;;;;;;;58.03;8.10;;;;;;;-145.67;100.00;66521.78;5003554;28;20042;-71
2022/01/03 01:59:22;;;;;;;56.00;7.43;;;;;;;-145.67;100.00;66521.78;4993764;28;20057;-71
2022/01/03 02:02:06;;;;;;;49.72;7.32;;;;;;;-145.67;100.00;66521.78;5009188;28;20156;-71
2022/01/03 02:04:35;;;;;;;68.55;8.65;;;;;;;-145.67;100.00;66521.78;4993382;28;20092;-71
2022/01/03 02:07:37;;;;;;;52.17;7.53;;;;;;;-145.67;100.00;66521.78;4995964;28;20049;-70
2022/01/03 02:10:05;;;;;;;51.70;7.78;;;;;;;-145.67;100.00;66521.78;4997471;28;20033;-71
2022/01/03 02:12:37;;;;;;;51.20;8.13;;;;;;;-145.67;100.00;66521.78;4997869;28;20025;-71
2022/01/03 02:15:09;;;;;;;58.60;8.47;;;;;;;-145.67;100.00;66521.78;4997792;28;20049;-71
2022/01/03 02:17:35;;;;;;;63.85;8.75;;;;;;;-145.67;100.00;66521.78;4997529;28;20845;-71
2022/01/03 02:20:04;;;;;;;56.33;8.80;;;;;;;-145.67;100.00;66521.78;4996881;28;20033;-71
2022/01/03 02:22:32;;;;;;;53.53;8.18;;;;;;;-145.67;100.00;66521.78;4997681;28;20037;-71
2022/01/03 02:24:58;;;;;;;53.50;8.68;;;;;;;-145.67;100.00;66521.78;4990653;28;20548;-71
2022/01/03 02:27:23;;;;;;;65.22;8.50;;;;;;;-145.67;100.00;66521.78;4997181;28;20034;-71
2022/01/03 02:29:49;;;;;;;60.28;9.70;;;;;;;-145.67;100.00;66521.78;5012160;28;20573;-71
2022/01/03 02:32:14;;;;;;;66.95;9.05;;;;;;;-145.67;100.00;66521.78;5001104;28;20038;-71
2022/01/03 02:34:41;;;;;;;54.63;7.82;;;;;;;-145.67;100.00;66521.78;4995940;28;20033;-70
2022/01/03 02:37:07;;;;;;;59.90;8.23;;;;;;;-145.67;100.00;66521.78;4997391;28;20037;-71
2022/01/03 02:39:33;;;;;;;60.67;9.63;;;;;;;-145.67;100.00;66521.78;4997329;28;20108;-71
2022/01/03 02:41:59;;;;;;;61.00;7.97;;;;;;;-145.67;100.00;66521.78;4997183;28;20034;-72
2022/01/03 02:44:25;;;;;;;68.60;8.27;;;;;;;-145.67;100.00;66521.78;4997787;28;20036;-70
2022/01/03 02:46:51;;;;;;;55.72;8.32;;;;;;;-145.67;100.00;66521.78;4996680;28;20029;-72
2022/01/03 02:49:19;;;;;;;61.13;9.70;;;;;;;-145.67;100.00;66521.78;4996783;28;20037;-72
2022/01/03 02:51:47;;;;;;;61.63;8.95;;;;;;;-145.67;100.00;66521.78;4996790;28;20481;-71
2022/01/03 02:54:13;;;;;;;67.97;10.38;;;;;;;-145.67;100.00;66521.78;4996823;28;20121;-71
2022/01/03 02:56:42;;;;;;;58.38;8.68;;;;;;;-145.67;100.00;66521.78;4996807;28;20037;-71
2022/01/03 02:59:12;;;;;;;57.22;8.00;;;;;;;-145.67;100.00;66521.78;5011670;28;20044;-71
2022/01/03 03:01:41;;;;;;;66.13;8.77;;;;;;;-145.67;100.00;66521.78;5011608;28;20485;-72
2022/01/03 03:04:07;;;;;;;66.05;9.38;;;;;;;-145.67;100.00;66521.78;4995937;28;20092;-72
2022/01/03 03:06:33;;;;;;;59.97;8.07;;;;;;;-145.67;100.00;66521.78;5002330;28;20145;-71
2022/01/03 03:08:58;;;;;;;59.25;10.13;;;;;;;-145.67;100.00;66521.78;5001720;28;20029;-72
2022/01/03 03:11:24;;;;;;;67.97;9.00;;;;;;;-145.67;100.00;66521.78;4996591;28;20839;-72
2022/01/03 03:13:49;;;;;;;66.05;8.63;;;;;;;-145.67;100.00;66521.78;4995550;28;20598;-72
2022/01/03 03:16:15;;;;;;;66.25;9.23;;;;;;;-145.67;100.00;66521.78;4997066;28;20042;-72
2022/01/03 03:18:44;;;;;;;60.85;8.43;;;;;;;-145.67;100.00;66521.78;4995766;28;20108;-71
2022/01/03 03:21:09;;;;;;;61.95;9.93;;;;;;;-145.67;100.00;66521.78;4996489;28;20433;-72
2022/01/03 03:23:35;;;;;;;61.85;8.45;;;;;;;-145.67;100.00;66521.78;4995732;28;20044;-72
2022/01/03 03:26:00;;;;;;;68.93;9.45;;;;;;;-145.67;100.00;66521.78;4996211;28;20037;-71
2022/01/03 03:28:28;;;;;;;69.68;9.50;;;;;;;-145.67;100.00;66521.78;4994171;28;20069;-72
2022/01/03 03:30:54;;;;;;;54.03;8.23;;;;;;;-145.67;100.00;66521.78;4995015;28;20129;-71
2022/01/03 03:33:22;;;;;;;62.03;9.38;;;;;;;-145.67;100.00;66521.78;5001675;28;20045;-72
2022/01/03 03:35:51;;;;;;;64.88;9.20;;;;;;;-145.67;100.00;66521.78;5005544;28;20039;-71
2022/01/03 03:38:19;;;;;;;66.20;9.57;;;;;;;-145.67;100.00;66521.78;5005443;28;20247;-71
2022/01/03 03:40:45;;;;;;;57.90;8.88;;;;;;;-145.67;100.00;66521.78;4995756;28;20042;-71
2022/01/03 03:43:12;;;;;;;55.33;7.93;;;;;;;-145.67;100.00;66521.78;4989124;28;22033;-71
2022/01/03 03:45:40;;;;;;;68.40;9.07;;;;;;;-145.67;100.00;66521.78;4996248;28;20037;-71
2022/01/03 03:48:06;;;;;;;67.28;9.45;;;;;;;-145.67;100.00;66521.78;5010501;28;20076;-71
2022/01/03 03:50:32;;;;;;;62.05;9.85;;;;;;;-145.67;100.00;66521.78;5010826;28;20041;-71
2022/01/03 03:52:57;;;;;;;69.28;9.55;;;;;;;-145.67;100.00;66521.78;5009952;28;20662;-73
2022/01/03 03:55:23;;;;;;;73.78;8.98;;;;;;;-145.67;100.00;66521.78;5002755;28;20092;-72
2022/01/03 03:57:49;;;;;;;56.78;7.63;;;;;;;-145.67;100.00;66521.78;4995238;28;20184;-72
2022/01/03 04:00:17;;;;;;;60.00;8.75;;;;;;;-145.67;100.00;66521.78;4995578;28;20057;-71
2022/01/03 04:02:43;;;;;;;82.13;9.35;;;;;;;-145.67;100.00;66521.78;4995466;28;20053;-72
2022/01/03 04:05:09;;;;;;;71.88;9.10;;;;;;;-145.67;100.00;66521.78;4995183;28;20033;-71
2022/01/03 04:07:36;;;;;;;70.10;10.13;;;;;;;-145.67;100.00;66521.78;4995428;28;20037;-71
2022/01/03 04:10:03;;;;;;;57.00;8.35;;;;;;;-145.67;100.00;66521.78;4993566;28;20080;-71
2022/01/03 04:12:29;;;;;;;66.93;9.35;;;;;;;-145.67;100.00;66521.78;4988993;28;20036;-72
2022/01/03 04:14:54;;;;;;;63.75;9.48;;;;;;;-145.67;100.00;66521.78;4994128;28;20488;-71
2022/01/03 04:17:19;;;;;;;69.78;9.30;;;;;;;-145.67;100.00;66521.78;4995691;28;20069;-71
2022/01/03 04:19:45;;;;;;;72.82;9.93;;;;;;;-145.67;100.00;66521.78;4994776;28;20132;-71
2022/01/03 04:22:15;;;;;;;58.97;9.75;;;;;;;-145.67;100.00;66521.78;4995572;28;20049;-71
2022/01/03 04:24:41;;;;;;;66.55;9.30;;;;;;;-145.67;100.00;66521.78;4994461;28;20146;-71
2022/01/03 04:27:06;;;;;;;67.78;9.55;;;;;;;-145.67;100.00;66521.78;4977824;28;20587;-72
2022/01/03 04:29:32;;;;;;;75.68;10.43;;;;;;;-145.67;100.00;66521.78;4993667;28;20030;-71
2022/01/03 04:31:58;;;;;;;67.05;9.15;;;;;;;-145.67;100.00;66521.78;4994648;28;20470;-71
2022/01/03 04:34:24;;;;;;;74.53;9.68;;;;;;;-145.67;100.00;66521.78;4984555;28;20080;-70
2022/01/03 04:36:49;;;;;;;74.15;9.88;;;;;;;-145.67;100.00;66521.78;5009221;28;20037;-71
2022/01/03 04:39:15;;;;;;;59.00;8.52;;;;;;;-145.67;100.00;66521.78;4994229;28;20053;-71
2022/01/03 04:41:40;;;;;;;62.85;9.38;;;;;;;-145.67;100.00;66521.78;4994243;28;20077;-71
2022/01/03 04:44:06;;;;;;;73.38;10.27;;;;;;;-145.67;100.00;66521.78;4994710;28;20076;-71
2022/01/03 04:46:33;;;;;;;70.60;9.73;;;;;;;-145.67;100.00;66521.78;5009968;28;20045;-71
2022/01/03 04:49:01;;;;;;;75.20;9.95;;;;;;;-145.67;100.00;66521.78;4994649;28;20041;-71
2022/01/03 04:51:26;;;;;;;64.50;8.70;;;;;;;-145.67;100.00;66521.78;5000478;28;20049;-71
2022/01/03 04:53:52;;;;;;;65.70;9.82;;;;;;;-145.67;100.00;66521.78;4997774;28;20030;-72
2022/01/03 04:56:18;;;;;;;75.15;9.65;;;;;;;-145.67;100.00;66521.78;4994962;28;20580;-71
2022/01/03 04:58:44;;;;;;;73.90;9.45;;;;;;;-145.67;100.00;66521.78;4994865;28;20030;-71
2022/01/03 05:01:12;;;;;;;69.43;10.73;;;;;;;-145.67;100.00;66521.78;5009842;28;20132;-71
2022/01/03 05:03:37;;;;;;;69.53;10.68;;;;;;;-145.67;100.00;66521.78;4997464;28;20316;-71
2022/01/03 05:06:03;;;;;;;76.43;9.82;;;;;;;-145.67;100.00;66521.78;4993174;28;20041;-71
2022/01/03 05:08:32;;;;;;;73.78;10.88;;;;;;;-145.67;100.00;66521.78;5008728;28;20048;-71
2022/01/03 05:11:02;;;;;;;80.55;11.25;;;;;;;-145.67;100.00;66521.78;4999647;28;20033;-71
2022/01/03 05:13:28;;;;;;;70.97;9.20;;;;;;;-145.67;100.00;66521.78;4994325;28;20029;-70
2022/01/03 05:15:54;;;;;;;78.22;10.23;;;;;;;-145.67;100.00;66521.78;5003816;28;20038;-71
2022/01/03 05:18:20;;;;;;;58.05;9.32;;;;;;;-145.67;100.00;66521.78;4991232;28;20536;-71
2022/01/03 05:20:45;;;;;;;95.68;10.60;;;;;;;-145.67;100.00;66521.78;4994144;28;20037;-71
2022/01/03 05:23:10;;;;;;;65.78;9.45;;;;;;;-145.67;100.00;66521.78;5009156;28;20569;-71
2022/01/03 05:25:36;;;;;;;74.93;9.27;;;;;;;-145.67;100.00;66521.78;4982844;28;20430;-71
2022/01/03 05:28:02;;;;;;;75.45;10.13;;;;;;;-145.67;100.00;66521.78;4994871;28;20123;-71
2022/01/03 05:30:27;;;;;;;88.95;11.43;;;;;;;-145.67;100.00;66521.78;5008951;28;20443;-71
2022/01/03 05:32:55;;;;;;;85.65;11.63;;;;;;;-145.67;100.00;66521.78;4994182;28;22477;-71
2022/01/03 05:35:20;;;;;;;71.03;10.70;;;;;;;-145.67;100.00;66521.78;4993607;28;22156;-71
2022/01/03 05:37:46;;;;;;;86.90;12.70;;;;;;;-145.67;100.00;66521.78;4993798;28;20037;-71
2022/01/03 05:40:12;;;;;;;78.60;11.57;;;;;;;-145.67;100.00;66521.78;4993919;28;20189;-71
2022/01/03 05:42:37;;;;;;;71.45;11.27;;;;;;;-145.67;100.00;66521.78;4997426;28;20481;-71
2022/01/03 05:45:04;;;;;;;100.68;13.13;;;;;;;-145.67;100.00;66521.78;5012366;28;20104;-71
2022/01/03 05:47:30;;;;;;;83.80;10.68;;;;;;;-145.67;100.00;66521.78;4997828;28;20034;-71
2022/01/03 05:49:56;;;;;;;74.18;9.25;;;;;;;-145.67;100.00;66521.78;5012241;28;20033;-71
2022/01/03 05:52:22;;;;;;;83.55;11.20;;;;;;;-145.67;100.00;66521.78;4997636;28;20385;-72
2022/01/03 05:54:53;;;;;;;66.00;11.55;;;;;;;-145.67;100.00;66521.78;4993038;28;20319;-71
2022/01/03 05:57:19;;;;;;;79.00;10.55;;;;;;;-145.67;100.00;66521.78;4997234;28;20069;-71
2022/01/03 05:59:45;;;;;;;78.70;10.75;;;;;;;-145.67;100.00;66521.78;4997359;28;20042;-71
2022/01/03 06:02:10;;;;;;;88.25;11.02;;;;;;;-145.67;100.00;66521.78;4997743;28;20079;-71
2022/01/03 06:04:59;;;;;;;67.93;10.43;;;;;;;-145.67;100.00;66521.78;4997107;28;20148;-71
2022/01/03 06:07:25;;;;;;;75.70;10.00;;;;;;;-145.67;100.00;66521.78;4997088;28;20037;-70
2022/01/03 06:09:50;;;;;;;74.22;11.77;;;;;;;-145.67;100.00;66521.78;4990758;28;20056;-71
2022/01/03 06:12:17;;;;;;;80.88;9.88;;;;;;;-145.67;100.00;66521.78;4997555;28;20030;-71
2022/01/03 06:14:44;;;;;;;82.43;10.55;;;;;;;-145.67;100.00;66521.78;4997286;28;20045;-70
2022/01/03 06:17:10;;;;;;;85.47;12.27;;;;;;;-145.67;100.00;66521.78;5005238;28;20038;-70
2022/01/03 06:19:36;;;;;;;78.60;10.30;;;;;;;-145.67;100.00;66521.78;4996808;28;20508;-71
2022/01/03 06:22:02;;;;;;;89.85;10.68;;;;;;;-145.67;100.00;66521.78;4996088;28;20045;-70
2022/01/03 06:24:28;;;;;;;81.70;9.65;;;;;;;-145.67;100.00;66521.78;5011853;28;20281;-71
2022/01/03 06:26:55;;;;;;;70.20;9.55;;;;;;;-145.67;100.00;66521.78;5003165;28;20037;-71
2022/01/03 06:29:24;;;;;;;81.65;10.23;;;;;;;-145.67;100.00;66521.78;5002637;28;20049;-71
2022/01/03 06:31:50;;;;;;;78.95;10.82;;;;;;;-145.67;100.00;66521.78;4997001;28;20239;-70
2022/01/03 06:34:16;;;;;;;79.68;11.50;;;;;;;-145.67;100.00;66521.78;4990359;28;20425;-71
2022/01/03 06:36:45;;;;;;;85.97;11.95;;;;;;;-145.67;100.00;66521.78;5012245;28;20041;-72
2022/01/03 06:39:15;;;;;;;78.88;10.57;;;;;;;-145.67;100.00;66521.78;4997161;28;20088;-71
2022/01/03 06:41:41;;;;;;;89.00;11.85;;;;;;;-145.67;100.00;66521.78;4995984;28;20046;-71
2022/01/03 06:44:07;;;;;;;62.03;9.50;;;;;;;-145.67;100.00;66521.78;5011500;28;20539;-71
2022/01/03 06:46:33;;;;;;;75.13;9.40;;;;;;;-145.67;100.00;66521.78;5011739;28;20057;-71
2022/01/03 06:49:03;;;;;;;80.40;10.52;;;;;;;-145.67;100.00;66521.78;4996187;28;20038;-71
2022/01/03 06:51:34;;;;;;;76.10;9.45;;;;;;;-145.67;100.00;66521.78;4996601;28;20113;-71
2022/01/03 06:53:59;;;;;;;73.38;9.73;;;;;;;-145.67;100.00;66521.78;4996069;28;20029;-71
2022/01/03 06:56:25;;;;;;;76.38;9.95;;;;;;;-145.67;100.00;66521.78;4996620;28;20132;-71
2022/01/03 06:58:50;;;;;;;70.85;10.48;;;;;;;-145.67;100.00;66521.78;4996384;28;20112;-70
2022/01/03 07:01:18;;;;;;;66.55;9.50;;;;;;;-145.67;100.00;66521.78;4994875;28;20030;-71
2022/01/03 07:03:44;;;;;;;70.18;8.68;;;;;;;-145.67;100.00;66521.78;4994113;28;20041;-71
2022/01/03 07:06:10;;;;;;;77.05;10.57;;;;;;;-145.67;100.00;66521.78;4994741;28;20176;-71
2022/01/03 07:08:35;;;;;;;79.25;11.07;;;;;;;-145.67;100.00;66521.78;5002476;28;20025;-73
2022/01/03 07:11:00;;;;;;;59.83;8.93;;;;;;;-145.67;100.00;66521.78;4996732;28;20080;-74
2022/01/03 07:13:29;;;;;;;70.18;9.32;;;;;;;-145.67;100.00;66521.78;4999656;28;20105;-74
2022/01/03 07:18:56;;;;;;;78.07;10.82;;;;;;;-145.67;100.00;66521.78;4995856;28;20048;-74
2022/01/03 07:21:23;;;;;;;69.95;10.05;;;;;;;-145.67;100.00;66521.78;4995886;28;20029;-74
2022/01/03 07:23:51;;;;;;;77.18;10.57;;;;;;;-145.67;100.00;66521.78;5005410;28;20056;-74
2022/01/03 07:26:17;;;;;;;69.20;10.27;;;;;;;-145.67;100.00;66521.78;4994982;28;20037;-73
2022/01/03 07:28:42;;;;;;;70.97;10.50;;;;;;;-145.67;100.00;66521.78;5010808;28;20037;-74
2022/01/03 07:31:08;;;;;;;72.45;9.82;;;;;;;-145.67;100.00;66521.78;4996470;28;20520;-73
2022/01/03 07:33:34;;;;;;;72.18;10.00;;;;;;;-145.67;100.00;66521.78;4995516;28;20117;-73
2022/01/03 07:36:02;;;;;;;63.65;8.90;;;;;;;-145.67;100.00;66521.78;4996445;28;20433;-73
2022/01/03 07:38:27;;;;;;;59.95;9.40;;;;;;;-145.67;100.00;66521.78;4983249;28;20053;-73
2022/01/03 07:40:55;;;;;;;74.40;10.38;;;;;;;-145.67;100.00;66521.78;4995455;28;20041;-73
2022/01/03 07:43:21;;;;;;;74.20;10.18;;;;;;;-145.67;100.00;66521.78;4995787;28;20537;-73
2022/01/03 07:45:49;;;;;;;65.78;9.75;;;;;;;-145.67;100.00;66521.78;5010363;28;20042;-73
2022/01/03 07:48:14;;;;;;;71.35;10.38;;;;;;;-145.67;100.00;66521.78;4994444;28;20128;-73
2022/01/03 07:50:42;;;;;;;71.70;9.25;;;;;;;-145.67;100.00;66521.78;5010299;28;20044;-73
2022/01/03 07:53:10;;;;;;;64.38;9.25;;;;;;;-145.67;100.00;66521.78;4996066;28;20052;-74
2022/01/03 07:55:35;;;;;;;70.85;9.88;;;;;;;-145.67;100.00;66521.78;4994053;28;20034;-73
2022/01/03 07:58:03;;;;;;;74.38;9.32;;;;;;;-145.67;100.00;66521.78;4995781;28;20029;-74
2022/01/03 08:00:28;;;;;;;61.75;8.57;;;;;;;-145.67;100.00;66521.78;4995259;28;20037;-73
2022/01/03 08:02:54;;;;;;;71.55;10.52;;;;;;;-145.67;100.00;66521.78;5010989;28;20080;-73
2022/01/03 08:05:20;;;;;;;64.80;9.38;;;;;;;-145.67;100.00;66521.78;4995290;28;20129;-73
2022/01/03 08:07:45;;;;;;;53.88;8.68;;;;;;;-145.67;100.00;66521.78;4995863;28;20410;-73
2022/01/03 08:10:12;;;;;;;72.75;9.52;;;;;;;-145.67;100.00;66521.78;4995558;28;20470;-74
2022/01/03 08:12:39;;;;;;;70.05;10.43;;;;;;;-145.67;100.00;66521.78;4995059;28;20033;-74
2022/01/03 08:15:12;;;;;;;72.85;8.95;;;;;;;-145.67;100.00;66521.78;4995078;28;20160;-73
2022/01/03 08:17:40;;;;;;;69.43;9.25;;;;;;;-145.67;100.00;66521.78;5010082;28;20041;-73
2022/01/03 08:20:06;;;;;;;70.35;8.55;;;;;;;-145.67;100.00;66521.78;4994664;28;20038;-73
2022/01/03 08:22:34;;;;;;;71.03;8.35;;;;;;;-145.67;100.00;66521.78;4993665;28;20508;-73
2022/01/03 08:25:02;;;;;;;64.50;8.27;;;;;;;-145.67;100.00;66521.78;4995171;28;20091;-73
2022/01/03 08:27:28;;;;;;;74.38;9.07;;;;;;;-145.67;100.00;66521.78;4994799;28;20045;-73
2022/01/03 08:29:53;;;;;;;73.05;9.85;;;;;;;-145.67;100.00;66521.78;4994769;28;20273;-73
2022/01/03 08:32:19;;;;;;;74.15;10.15;;;;;;;-145.67;100.00;66521.78;5010246;28;20033;-73
2022/01/03 08:34:48;;;;;;;72.93;9.88;;;;;;;-145.67;100.00;66521.78;4993946;28;20061;-73
2022/01/03 08:37:14;;;;;;;74.05;9.07;;;;;;;-145.67;100.00;66521.78;4993339;28;20382;-73
2022/01/03 08:39:39;;;;;;;76.57;10.02;;;;;;;-145.67;100.00;66521.78;4994388;28;20050;-73
2022/01/03 08:42:05;;;;;;;67.07;9.65;;;;;;;-145.67;100.00;66521.78;4994687;28;20211;-73
2022/01/03 08:44:31;;;;;;;71.25;9.75;;;;;;;-145.67;100.00;66521.78;4998146;28;20104;-73
2022/01/03 08:46:59;;;;;;;84.78;10.40;;;;;;;-145.67;100.00;66521.78;4994924;28;20040;-73
2022/01/03 08:49:27;;;;;;;72.53;10.70;;;;;;;-145.67;100.00;66521.78;4994194;28;20038;-73
2022/01/03 08:51:52;;;;;;;78.30;10.63;;;;;;;-145.67;100.00;66521.78;4995118;28;20037;-73
2022/01/03 08:54:22;;;;;;;66.63;8.85;;;;;;;-145.67;100.00;66521.78;4994912;28;20756;-73
2022/01/03 08:56:50;;;;;;;75.93;10.23;;;;;;;-145.67;100.00;66521.78;4982053;28;20045;-73
2022/01/03 08:59:16;;;;;;;69.25;11.07;;;;;;;-145.67;100.00;66521.78;4994665;28;20499;-73
2022/01/03 09:01:41;;;;;;;59.85;9.18;;;;;;;-145.67;100.00;66521.78;4994671;28;20115;-73
2022/01/03 09:04:09;;;;;;;66.53;9.25;;;;;;;-145.67;100.00;66521.78;4994095;28;20044;-73
2022/01/03 09:06:35;;;;;;;70.00;9.75;;;;;;;-145.67;100.00;66521.78;4998351;28;20492;-73
2022/01/03 09:09:01;;;;;;;65.32;8.93;;;;;;;-145.67;100.00;66521.78;5004547;28;20099;-73
2022/01/03 09:11:27;;;;;;;73.63;9.70;;;;;;;-145.67;100.00;66521.78;4992695;28;20030;-73
2022/01/03 09:13:52;;;;;;;62.05;10.15;;;;;;;-145.67;100.00;66521.78;4994594;28;22024;-73
2022/01/03 09:16:18;;;;;;;66.20;9.15;;;;;;;-145.67;100.00;66521.78;4993032;28;20039;-73
2022/01/03 09:18:48;;;;;;;70.78;9.02;;;;;;;-145.67;100.00;66521.78;4997624;28;20037;-74
2022/01/03 09:21:14;;;;;;;53.45;9.07;;;;;;;-145.67;100.00;66521.78;4994896;28;20048;-74
2022/01/03 09:23:45;;;;;;;59.85;8.68;;;;;;;-145.67;100.00;66521.78;4993970;28;20041;-74
2022/01/03 09:28:58;;;;;;;63.75;8.63;;;;;;;-145.67;100.00;66521.78;4993425;28;20386;-74
2022/01/03 09:31:28;;;;;;;57.25;8.90;;;;;;;-145.67;100.00;66521.78;4993546;28;20548;-74
2022/01/03 09:33:57;;;;;;;74.13;8.30;;;;;;;-145.67;100.00;66521.78;4993690;28;20040;-74
2022/01/03 09:36:23;;;;;;;68.35;9.73;;;;;;;-145.67;100.00;66521.78;4994745;28;20504;-74
2022/01/03 09:38:49;;;;;;;78.03;10.27;;;;;;;-145.67;100.00;66521.78;5003460;28;20045;-74
2022/01/03 09:41:18;;;;;;;63.80;10.27;;;;;;;-145.67;100.00;66521.78;4994101;28;20034;-74
2022/01/03 09:43:54;;;;;;;69.05;9.40;;;;;;;-145.67;100.00;66521.78;5003304;28;20048;-74
2022/01/03 09:46:31;;;;;;;72.60;10.18;;;;;;;-145.67;100.00;66521.78;4999768;28;20087;-74
2022/01/03 09:48:57;;;;;;;77.70;8.70;;;;;;;-145.67;100.00;66521.78;5008483;28;20062;-74
2022/01/03 09:51:27;;;;;;;59.60;7.78;;;;;;;-145.67;100.00;66521.78;4994300;28;20057;-74
2022/01/03 09:53:59;;;;;;;;;;;;;;;-145.67;100.00;66521.78;4994643;28;20477;-74
2022/01/03 09:56:28;;;;;;;81.47;10.32;;;;;;;-145.67;100.00;66521.78;5009019;28;20008;-74
2022/01/03 09:58:54;;;;;;;72.78;9.55;;;;;;;-145.67;100.00;66521.78;5009359;28;20044;-74
2022/01/03 10:01:19;;;;;;;71.18;8.52;;;;;;;-145.67;100.00;66521.78;4993803;28;20030;-74
2022/01/03 10:03:52;;;;;;;75.32;9.25;;;;;;;-145.67;100.00;66521.78;4994275;28;20038;-74
2022/01/03 10:06:19;;;;;;;70.85;9.02;;;;;;;-145.67;100.00;66521.78;5003805;28;20033;-74
2022/01/03 10:08:45;;;;;;;62.20;8.45;;;;;;;-145.67;100.00;66521.78;4993603;28;20065;-74
2022/01/03 10:11:10;;;;;;;60.83;9.68;;;;;;;-145.67;100.00;66521.78;4992481;28;20288;-74
2022/01/03 10:13:38;;;;;;;69.85;8.63;;;;;;;-145.67;100.00;66521.78;4993568;28;20055;-73
2022/01/03 10:16:04;;;;;;;73.80;9.80;;;;;;;-145.67;100.00;66521.78;4997344;28;20235;-73
2022/01/03 10:18:33;;;;;;;63.78;8.77;;;;;;;-145.67;100.00;66521.78;4993974;28;20030;-73
2022/01/03 10:21:03;;;;;;;71.18;8.70;;;;;;;-145.67;100.00;66521.78;4992414;28;20099;-73
2022/01/03 10:23:28;;;;;;;67.43;10.40;;;;;;;-145.67;100.00;66521.78;4994027;28;20041;-74
2022/01/03 10:26:15;;;;;;;64.90;9.27;;;;;;;-145.67;100.00;66521.78;5008540;28;20049;-72
2022/01/03 10:28:44;;;;;;;76.35;9.00;;;;;;;-145.67;100.00;66521.78;4994839;28;20262;-74
2022/01/03 10:31:21;;;;;;;63.67;9.23;;;;;;;-145.67;100.00;66521.78;4996828;28;20033;-74
2022/01/03 10:34:05;;;;;;;63.85;8.85;;;;;;;-145.67;100.00;66521.78;5011268;28;20107;-75
2022/01/03 10:36:34;;;;;;;63.25;10.02;;;;;;;-145.67;100.00;66521.78;5012594;28;20036;-74
2022/01/03 10:39:17;;;;;;;76.45;10.00;;;;;;;-145.67;100.00;66521.78;5012095;28;20092;-74
2022/01/03 10:42:12;;;;;;;60.40;8.20;;;;;;;-145.67;100.00;66521.78;5004931;28;20132;-74
2022/01/03 10:44:40;;;;;;;71.10;9.15;;;;;;;-145.67;100.00;66521.78;4995990;28;20087;-72
2022/01/03 10:47:13;;;;;;;61.15;8.93;;;;;;;-145.67;100.00;66521.78;5011869;28;20172;-74
2022/01/03 10:49:40;;;;;;;67.28;8.50;;;;;;;-145.67;100.00;66521.78;4995525;28;20029;-74
2022/01/03 10:52:17;;;;;;;62.45;8.63;;;;;;;-145.67;100.00;66521.78;5011528;28;20040;-74
2022/01/03 10:54:45;;;;;;;65.22;9.05;;;;;;;-145.67;100.00;66521.78;4995352;28;20041;-74
2022/01/03 10:57:11;;;;;;;54.40;7.97;;;;;;;-145.67;100.00;66521.78;5002046;28;20421;-74
2022/01/03 10:59:38;;;;;;;70.18;8.55;;;;;;;-145.67;100.00;66521.78;5011145;28;20033;-71
2022/01/03 11:02:07;;;;;;;76.15;9.55;;;;;;;-145.67;100.00;66521.78;4997045;28;20037;-71
2022/01/03 11:04:49;;;;;;;60.13;9.38;;;;;;;-145.67;100.00;66521.78;4996562;28;20034;-71
2022/01/03 11:13:11;;;;;;;72.40;10.02;;;;;;;-145.67;100.00;66521.78;5002241;28;20052;-71
2022/01/03 11:15:40;;;;;;;68.93;10.25;;;;;;;-145.67;100.00;66521.78;5002370;28;20512;-71
2022/01/03 11:18:18;;;;;;;69.38;9.05;;;;;;;-145.67;100.00;66521.78;4996677;28;20029;-71